Time;durP1;ratioP1;P1;durP2;ratioP2;P2;SDS_P1;SDS_P2;PMS_P1;PMS_P2;Temp;Humidity;BMP_temperature;BMP_pressure;BME280_temperature;BME280_humidity;BME280_pressure;Samples;Min_cycle;Max_cycle;Signal;HPM_P1;HPM_P2
2022/07/01 00:01:00;;;;;;;2.90;2.60;;;24.00;99.90;;;;;;6161148;28;89133;-66
2022/07/01 00:04:03;;;;;;;4.35;3.33;;;24.00;99.90;;;;;;6160461;28;87760;-66
2022/07/01 00:07:05;;;;;;;2.92;2.60;;;24.00;99.90;;;;;;6150274;28;89989;-66
2022/07/01 00:10:08;;;;;;;2.70;2.50;;;24.00;99.90;;;;;;6155771;28;89009;-66
2022/07/01 00:13:10;;;;;;;3.10;2.80;;;24.00;99.90;;;;;;6134740;28;89073;-66
2022/07/01 00:16:12;;;;;;;3.10;2.70;;;24.00;99.90;;;;;;6147658;28;89127;-66
2022/07/01 00:19:16;;;;;;;3.45;2.65;;;24.10;99.90;;;;;;6157807;28;87853;-67
2022/07/01 00:22:18;;;;;;;3.42;2.80;;;24.00;99.90;;;;;;6141954;28;89343;-66
2022/07/01 00:25:20;;;;;;;2.97;2.67;;;24.10;99.90;;;;;;6150113;28;89426;-66
2022/07/01 00:28:22;;;;;;;3.00;2.72;;;24.00;99.90;;;;;;6152063;28;88720;-66
2022/07/01 00:31:24;;;;;;;2.92;2.72;;;24.00;99.90;;;;;;6135164;28;89174;-66
2022/07/01 00:34:27;;;;;;;2.92;2.70;;;24.00;99.90;;;;;;6147975;28;89580;-66
2022/07/01 00:37:30;;;;;;;2.50;2.30;;;24.00;99.90;;;;;;6145841;28;88788;-66
2022/07/01 00:40:32;;;;;;;2.47;2.28;;;24.00;99.90;;;;;;6149699;28;89664;-66
2022/07/01 00:43:38;;;;;;;2.45;2.25;;;24.00;99.90;;;;;;6134764;28;89127;-66
2022/07/01 00:46:40;;;;;;;2.60;2.40;;;24.00;99.90;;;;;;6141035;28;89113;-66
2022/07/01 00:49:43;;;;;;;2.58;2.30;;;24.00;99.90;;;;;;6152911;28;89300;-66
2022/07/01 00:52:46;;;;;;;2.70;2.50;;;24.00;99.90;;;;;;6140401;28;89083;-66
2022/07/01 00:55:49;;;;;;;2.65;2.45;;;24.10;99.90;;;;;;6142342;28;89323;-67
2022/07/01 00:58:51;;;;;;;2.42;2.22;;;24.00;99.90;;;;;;6142419;28;87561;-66
2022/07/01 01:01:53;;;;;;;2.75;2.40;;;24.00;99.90;;;;;;6147110;28;89057;-66
2022/07/01 01:04:56;;;;;;;2.50;2.30;;;24.00;99.90;;;;;;6143767;28;89258;-66
2022/07/01 01:07:58;;;;;;;2.42;2.22;;;24.00;99.90;;;;;;6137253;28;90046;-66
2022/07/01 01:11:01;;;;;;;2.83;2.20;;;24.00;99.90;;;;;;6148262;28;88438;-66
2022/07/01 01:14:03;;;;;;;2.30;2.10;;;24.00;99.90;;;;;;6145267;28;89432;-66
2022/07/01 01:17:05;;;;;;;2.47;2.28;;;24.00;99.90;;;;;;6135312;28;88040;-66
2022/07/01 01:20:09;;;;;;;2.50;2.30;;;24.00;99.90;;;;;;6143745;28;89142;-66
2022/07/01 01:23:13;;;;;;;2.10;2.00;;;24.00;99.90;;;;;;6143777;28;88242;-66
2022/07/01 01:26:19;;;;;;;2.70;2.30;;;24.00;99.90;;;;;;6148480;28;89124;-66
2022/07/01 01:29:21;;;;;;;2.60;2.17;;;24.10;99.90;;;;;;6142510;28;88724;-66
2022/07/01 01:32:23;;;;;;;2.67;2.20;;;24.00;99.90;;;;;;6142686;28;89141;-67
2022/07/01 01:35:25;;;;;;;2.38;2.17;;;24.00;99.90;;;;;;6140107;28;88733;-66
2022/07/01 01:38:29;;;;;;;2.40;2.20;;;24.00;99.90;;;;;;6147106;28;89982;-66
2022/07/01 01:41:31;;;;;;;2.63;2.05;;;24.00;99.90;;;;;;6133309;28;89080;-66
2022/07/01 01:44:33;;;;;;;2.22;2.00;;;24.00;99.90;;;;;;6155907;28;89133;-66
2022/07/01 01:47:35;;;;;;;1.80;1.70;;;24.00;99.90;;;;;;6146768;28;89236;-66
2022/07/01 01:50:37;;;;;;;2.28;2.08;;;24.00;99.90;;;;;;6154969;28;89454;-66
2022/07/01 01:53:40;;;;;;;2.35;2.00;;;24.00;99.90;;;;;;6153044;28;89071;-67
2022/07/01 01:56:42;;;;;;;2.20;2.00;;;24.00;99.90;;;;;;6149649;28;89088;-66
2022/07/01 01:59:44;;;;;;;2.22;2.03;;;24.00;99.90;;;;;;6135891;28;88406;-66
2022/07/01 02:02:46;;;;;;;1.98;1.73;;;24.00;99.90;;;;;;6151786;28;87838;-67
2022/07/01 02:05:48;;;;;;;2.00;1.90;;;24.10;99.90;;;;;;6146044;28;89095;-66
2022/07/01 02:08:53;;;;;;;2.17;1.98;;;24.00;99.90;;;;;;6149854;28;90158;-66
2022/07/01 02:11:55;;;;;;;2.10;1.90;;;24.00;99.90;;;;;;6153780;28;88057;-66
2022/07/01 02:14:57;;;;;;;2.17;1.98;;;24.00;99.90;;;;;;6142187;28;89271;-66
2022/07/01 02:17:59;;;;;;;2.50;2.20;;;24.00;99.90;;;;;;6153044;28;89063;-66
2022/07/01 02:21:01;;;;;;;2.42;2.03;;;24.00;99.90;;;;;;6156367;28;89097;-66
2022/07/01 02:24:04;;;;;;;2.78;2.00;;;24.00;99.90;;;;;;6133600;28;89380;-66
2022/07/01 02:27:06;;;;;;;2.30;2.05;;;24.00;99.90;;;;;;6147244;28;88915;-66
2022/07/01 02:30:09;;;;;;;1.90;1.80;;;24.00;99.90;;;;;;6145190;28;88605;-66
2022/07/01 02:33:11;;;;;;;1.70;1.60;;;24.00;99.90;;;;;;6147412;28;89132;-66
2022/07/01 02:36:13;;;;;;;2.00;1.80;;;24.00;99.90;;;;;;6146722;28;87993;-66
2022/07/01 02:39:16;;;;;;;2.00;1.80;;;24.00;99.90;;;;;;6144931;28;90390;-66
2022/07/01 02:42:26;;;;;;;2.00;1.90;;;24.00;99.90;;;;;;6150013;28;89102;-66
2022/07/01 02:45:28;;;;;;;1.83;1.70;;;24.00;99.90;;;;;;6149224;28;88079;-66
2022/07/01 02:48:29;;;;;;;1.95;1.83;;;24.00;99.90;;;;;;6144190;28;89064;-66
2022/07/01 02:51:31;;;;;;;2.20;2.00;;;24.10;99.90;;;;;;6136659;28;89088;-66
2022/07/01 02:54:35;;;;;;;2.25;2.05;;;24.00;99.90;;;;;;6149875;28;89060;-66
2022/07/01 02:57:37;;;;;;;1.83;1.67;;;24.10;99.90;;;;;;6144822;28;89380;-66
2022/07/01 03:00:40;;;;;;;1.70;1.60;;;24.00;99.90;;;;;;6145032;28;88520;-66
2022/07/01 03:03:42;;;;;;;1.65;1.55;;;24.00;99.90;;;;;;6145931;28;89108;-66
2022/07/01 03:06:44;;;;;;;1.77;1.67;;;24.00;99.90;;;;;;6136713;28;88098;-66
2022/07/01 03:09:47;;;;;;;2.33;1.90;;;24.00;99.90;;;;;;6145145;28;90145;-66
2022/07/01 03:12:49;;;;;;;1.92;1.73;;;24.00;99.90;;;;;;6142632;28;89558;-66
2022/07/01 03:15:51;;;;;;;1.83;1.73;;;24.00;99.90;;;;;;6144036;28;89022;-66
2022/07/01 03:18:53;;;;;;;1.80;1.70;;;24.10;99.90;;;;;;6149359;28;89062;-66
2022/07/01 03:21:55;;;;;;;1.88;1.77;;;24.00;99.90;;;;;;6138334;28;89355;-66
2022/07/01 03:24:59;;;;;;;2.10;1.88;;;24.00;99.90;;;;;;6142705;28;89189;-66
2022/07/01 03:28:03;;;;;;;2.00;1.80;;;24.00;99.90;;;;;;6136432;28;89474;-66
2022/07/01 03:31:05;;;;;;;1.80;1.70;;;24.10;99.90;;;;;;6145956;28;88454;-66
2022/07/01 03:34:06;;;;;;;1.88;1.65;;;24.10;99.90;;;;;;6136201;28;89151;-66
2022/07/01 03:37:10;;;;;;;2.17;1.85;;;24.00;99.90;;;;;;6139215;28;89097;-65
2022/07/01 03:40:14;;;;;;;2.42;1.95;;;24.00;99.90;;;;;;6131649;28;90066;-66
2022/07/01 03:43:16;;;;;;;2.08;1.88;;;24.10;99.90;;;;;;6144998;28;89141;-66
2022/07/01 03:46:18;;;;;;;1.90;1.80;;;24.00;99.90;;;;;;6136598;28;89093;-66
2022/07/01 03:49:20;;;;;;;2.05;1.80;;;24.00;99.90;;;;;;6151421;28;89128;-66
2022/07/01 03:52:22;;;;;;;1.85;1.70;;;24.00;99.90;;;;;;6145571;28;88940;-66
2022/07/01 03:55:24;;;;;;;1.73;1.50;;;24.00;99.90;;;;;;6147836;28;89130;-66
2022/07/01 03:58:26;;;;;;;1.85;1.60;;;24.10;99.90;;;;;;6160771;28;88937;-66
2022/07/01 04:01:28;;;;;;;1.90;1.80;;;24.10;99.90;;;;;;6149215;28;89796;-66
2022/07/01 04:04:30;;;;;;;1.90;1.70;;;24.00;99.90;;;;;;6149187;28;89161;-66
2022/07/01 04:07:32;;;;;;;1.73;1.63;;;24.00;99.90;;;;;;6160129;28;89080;-66
2022/07/01 04:10:36;;;;;;;1.92;1.73;;;24.00;99.90;;;;;;6145430;28;90144;-66
2022/07/01 04:13:39;;;;;;;1.83;1.65;;;24.00;99.90;;;;;;6142349;28;91574;-66
2022/07/01 04:16:41;;;;;;;1.58;1.48;;;24.00;99.90;;;;;;6141746;28;89284;-66
2022/07/01 04:19:43;;;;;;;2.10;1.70;;;24.10;99.90;;;;;;6159430;28;89049;-66
2022/07/01 04:22:44;;;;;;;1.70;1.60;;;24.00;99.90;;;;;;6150712;28;89080;-66
2022/07/01 04:25:48;;;;;;;1.67;1.58;;;24.10;99.90;;;;;;6149988;28;88610;-66
2022/07/01 04:28:50;;;;;;;1.58;1.48;;;24.00;99.90;;;;;;6149376;28;89021;-66
2022/07/01 04:31:53;;;;;;;1.77;1.63;;;24.10;99.90;;;;;;6157583;28;88395;-66
2022/07/01 04:34:55;;;;;;;1.98;1.77;;;24.00;99.90;;;;;;6143267;28;89093;-65
2022/07/01 04:37:57;;;;;;;1.80;1.70;;;24.00;99.90;;;;;;6141654;28;88893;-66
2022/07/01 04:44:20;;;;;;;2.00;1.80;;;24.00;99.90;;;;;;6134629;28;87763;-66
2022/07/01 04:47:23;;;;;;;2.10;1.90;;;24.00;99.90;;;;;;6141026;28;87998;-66
2022/07/01 04:50:25;;;;;;;2.10;1.90;;;24.00;99.90;;;;;;6159051;28;89432;-66
2022/07/01 04:53:27;;;;;;;3.75;2.28;;;24.00;99.90;;;;;;6145826;28;89409;-65
2022/07/01 04:56:30;;;;;;;2.88;2.10;;;24.00;99.90;;;;;;6144693;28;89140;-66
2022/07/01 04:59:32;;;;;;;1.92;1.60;;;24.10;99.90;;;;;;6135546;28;89036;-66
2022/07/01 05:02:34;;;;;;;2.25;1.77;;;24.00;99.90;;;;;;6157724;28;88705;-66
2022/07/01 05:05:36;;;;;;;2.20;1.90;;;24.00;99.90;;;;;;6159367;28;89074;-66
2022/07/01 05:08:38;;;;;;;1.80;1.70;;;24.00;99.90;;;;;;6148787;28;87987;-65
2022/07/01 05:11:42;;;;;;;2.25;1.98;;;24.00;99.90;;;;;;6157478;28;89921;-65
2022/07/01 05:14:44;;;;;;;2.50;2.15;;;24.00;99.90;;;;;;6148990;28;89201;-65
2022/07/01 05:24:24;;;;;;;2.40;2.20;;;24.00;99.90;;;;;;6136578;28;87352;-65
2022/07/01 05:27:28;;;;;;;2.20;2.00;;;24.00;99.90;;;;;;6142286;28;89054;-66
2022/07/01 05:30:29;;;;;;;2.85;2.10;;;24.10;99.90;;;;;;6137449;28;89061;-65
2022/07/01 05:33:31;;;;;;;2.60;2.40;;;24.10;99.90;;;;;;6153313;28;88399;-66
2022/07/01 05:36:34;;;;;;;2.60;2.00;;;24.10;99.90;;;;;;6134174;28;89076;-65
2022/07/01 05:39:36;;;;;;;2.30;2.10;;;24.10;99.90;;;;;;6136505;28;89087;-66
2022/07/01 05:42:39;;;;;;;2.28;2.08;;;24.10;99.90;;;;;;6134007;28;89957;-66
2022/07/01 05:45:41;;;;;;;2.30;2.10;;;24.10;99.90;;;;;;6139701;28;89070;-66
2022/07/01 05:48:43;;;;;;;2.38;2.05;;;24.00;99.90;;;;;;6146494;28;89075;-66
2022/07/01 05:51:45;;;;;;;2.28;2.08;;;24.10;99.90;;;;;;6137795;28;89246;-66
2022/07/01 05:54:47;;;;;;;2.50;2.30;;;24.10;99.90;;;;;;6146913;28;87941;-65
2022/07/01 05:57:52;;;;;;;2.40;2.20;;;24.00;99.90;;;;;;6140854;28;88072;-66
2022/07/01 06:00:54;;;;;;;2.80;2.50;;;24.00;99.90;;;;;;6146765;28;88887;-66
2022/07/01 06:03:56;;;;;;;2.33;2.03;;;24.00;99.90;;;;;;6143493;28;88338;-66
2022/07/01 06:06:58;;;;;;;2.47;2.28;;;24.10;99.90;;;;;;6136948;28;89368;-66
2022/07/01 06:10:00;;;;;;;2.53;2.33;;;24.00;99.90;;;;;;6145622;28;87788;-66
2022/07/01 06:13:04;;;;;;;2.97;2.20;;;24.10;99.90;;;;;;6152720;28;91349;-66
2022/07/01 06:16:06;;;;;;;2.08;1.88;;;24.10;99.90;;;;;;6144519;28;88980;-65
2022/07/01 06:19:08;;;;;;;2.30;2.05;;;24.00;99.90;;;;;;6139865;28;89039;-66
2022/07/01 06:22:11;;;;;;;2.30;2.10;;;24.10;99.90;;;;;;6150280;28;89113;-66
2022/07/01 06:25:13;;;;;;;2.53;2.25;;;24.00;99.90;;;;;;6156720;28;88369;-66
2022/07/01 06:28:16;;;;;;;2.38;2.17;;;24.10;99.90;;;;;;6136342;28;89103;-65
2022/07/01 06:31:19;;;;;;;2.17;1.98;;;24.00;99.90;;;;;;6145479;28;89361;-66
2022/07/01 06:34:21;;;;;;;2.90;2.25;;;24.10;99.90;;;;;;6133517;28;88575;-66
2022/07/01 06:37:23;;;;;;;2.22;2.05;;;24.10;99.90;;;;;;6132820;28;88037;-65
2022/07/01 06:40:25;;;;;;;3.05;2.30;;;24.10;99.90;;;;;;6132990;28;89164;-66
2022/07/01 06:43:28;;;;;;;2.53;2.30;;;24.10;99.90;;;;;;6144548;28;90529;-65
2022/07/01 06:46:31;;;;;;;2.60;2.40;;;24.10;99.90;;;;;;6135616;28;89174;-65
2022/07/01 06:49:33;;;;;;;2.30;2.10;;;24.10;99.90;;;;;;6133733;28;87952;-65
2022/07/01 06:52:35;;;;;;;2.50;2.30;;;24.10;99.90;;;;;;6132486;28;89086;-65
2022/07/01 06:55:37;;;;;;;2.60;2.40;;;24.10;99.90;;;;;;6136306;28;89065;-65
2022/07/01 06:58:41;;;;;;;2.67;2.45;;;24.10;99.90;;;;;;6156406;28;89178;-66
2022/07/01 07:01:43;;;;;;;2.70;2.50;;;24.10;99.90;;;;;;6143086;28;89146;-65
2022/07/01 07:04:45;;;;;;;2.15;1.95;;;24.10;99.90;;;;;;6148763;28;88758;-65
2022/07/01 07:07:48;;;;;;;2.40;2.20;;;24.10;99.90;;;;;;6144798;28;89273;-65
2022/07/01 07:10:50;;;;;;;2.65;2.20;;;24.10;99.90;;;;;;6134127;28;89042;-66
2022/07/01 07:13:54;;;;;;;2.30;2.10;;;24.10;99.90;;;;;;6133490;28;90051;-65
2022/07/01 07:16:56;;;;;;;2.63;2.42;;;24.10;99.90;;;;;;6131653;28;87875;-65
2022/07/01 07:19:58;;;;;;;2.40;2.20;;;24.10;99.90;;;;;;6133329;28;89201;-65
2022/07/01 07:23:00;;;;;;;2.38;2.17;;;24.10;99.90;;;;;;6140750;28;89036;-65
2022/07/01 07:26:02;;;;;;;2.33;2.13;;;24.10;99.90;;;;;;6155791;28;87974;-66
2022/07/01 07:29:05;;;;;;;2.70;2.50;;;24.10;99.90;;;;;;6136088;28;89182;-66
2022/07/01 07:32:08;;;;;;;2.55;2.20;;;24.10;99.90;;;;;;6149283;28;89366;-66
2022/07/01 07:35:10;;;;;;;2.53;2.33;;;24.10;99.90;;;;;;6137415;28;87157;-65
2022/07/01 07:38:12;;;;;;;2.55;2.10;;;24.10;99.90;;;;;;6146972;28;89194;-65
2022/07/01 07:41:14;;;;;;;2.42;2.22;;;24.10;99.90;;;;;;6139411;28;89403;-66
2022/07/01 07:44:18;;;;;;;2.55;2.35;;;24.10;99.90;;;;;;6147895;28;90076;-65
2022/07/01 07:47:20;;;;;;;2.50;2.30;;;24.10;99.90;;;;;;6149458;28;89083;-66
2022/07/01 07:50:23;;;;;;;2.50;2.30;;;24.10;99.90;;;;;;6135372;28;87982;-66
2022/07/01 07:53:25;;;;;;;2.40;2.20;;;24.10;99.90;;;;;;6136474;28;89041;-65
2022/07/01 07:56:27;;;;;;;2.45;2.25;;;24.10;99.90;;;;;;6145447;28;89122;-66
2022/07/01 07:59:30;;;;;;;2.47;2.22;;;24.10;99.90;;;;;;6146539;28;89030;-65
2022/07/01 08:02:32;;;;;;;2.28;2.08;;;24.10;99.90;;;;;;6147519;28;87064;-65
2022/07/01 08:05:34;;;;;;;2.67;2.45;;;24.10;99.90;;;;;;6144284;28;88265;-66
2022/07/01 08:08:36;;;;;;;2.40;2.17;;;24.10;99.90;;;;;;6142002;28;89124;-66
2022/07/01 08:11:38;;;;;;;2.92;2.55;;;24.10;99.90;;;;;;6145068;28;89029;-66
2022/07/01 08:14:42;;;;;;;2.55;2.30;;;24.10;99.90;;;;;;6150456;28;89992;-66
2022/07/01 08:17:44;;;;;;;2.40;2.20;;;24.10;99.90;;;;;;6150794;28;89042;-66
2022/07/01 08:20:46;;;;;;;2.45;2.25;;;24.10;99.90;;;;;;6150381;28;89379;-66
2022/07/01 08:23:48;;;;;;;2.80;2.20;;;24.10;99.90;;;;;;6135818;28;89134;-66
2022/07/01 08:26:50;;;;;;;2.28;2.08;;;24.10;99.90;;;;;;6155059;28;89134;-66
2022/07/01 08:29:53;;;;;;;2.40;2.20;;;24.10;99.90;;;;;;6151477;28;89043;-65
2022/07/01 08:32:55;;;;;;;2.33;2.05;;;24.10;99.90;;;;;;6148092;28;89130;-66
2022/07/01 08:35:58;;;;;;;2.50;2.30;;;24.10;99.90;;;;;;6153705;28;88316;-65
2022/07/01 08:39:00;;;;;;;2.50;2.30;;;24.20;99.90;;;;;;6159174;28;89072;-66
2022/07/01 08:42:02;;;;;;;3.25;2.80;;;24.10;99.90;;;;;;6144810;28;89093;-66
2022/07/01 08:45:06;;;;;;;2.50;2.30;;;24.10;99.90;;;;;;6143883;28;89962;-66
2022/07/01 08:48:08;;;;;;;2.58;2.38;;;24.20;99.90;;;;;;6150693;28;87928;-66
2022/07/01 08:51:11;;;;;;;2.50;2.30;;;24.10;99.90;;;;;;6154144;28;89023;-65
2022/07/01 08:54:13;;;;;;;2.38;2.17;;;24.20;99.90;;;;;;6153715;28;89066;-66
2022/07/01 08:57:20;;;;;;;2.60;2.40;;;24.10;99.90;;;;;;6134590;28;89084;-65
2022/07/01 09:00:30;;;;;;;2.50;2.30;;;24.20;99.90;;;;;;6134776;28;89133;-66
2022/07/01 09:03:32;;;;;;;3.05;2.70;;;24.10;99.90;;;;;;6156390;28;91633;-65
2022/07/01 09:06:34;;;;;;;2.42;2.17;;;24.20;99.90;;;;;;6135866;28;88330;-66
2022/07/01 09:09:37;;;;;;;2.60;2.40;;;24.20;99.90;;;;;;6141841;28;89086;-66
2022/07/01 09:12:40;;;;;;;2.63;2.42;;;24.20;99.90;;;;;;6142698;28;89344;-66
2022/07/01 09:15:44;;;;;;;3.15;2.85;;;24.20;99.90;;;;;;6142029;28;90039;-66
2022/07/01 09:19:02;;;;;;;3.00;2.63;;;24.20;99.90;;;;;;6146165;28;89270;-65
2022/07/01 09:22:05;;;;;;;2.55;2.35;;;24.20;99.90;;;;;;6153003;28;89093;-66
2022/07/01 09:25:14;;;;;;;3.15;2.85;;;24.20;99.90;;;;;;6155333;28;89285;-66
2022/07/01 09:28:19;;;;;;;2.60;2.40;;;24.20;99.90;;;;;;6153715;28;88998;-66
2022/07/01 09:31:22;;;;;;;2.70;2.50;;;24.20;99.90;;;;;;6140485;28;89079;-66
2022/07/01 09:34:24;;;;;;;2.92;2.72;;;24.20;99.90;;;;;;6144111;28;89130;-66
2022/07/01 09:37:26;;;;;;;2.65;2.45;;;24.20;99.90;;;;;;6142889;28;88442;-65
2022/07/01 09:40:51;;;;;;;2.78;2.58;;;24.20;99.90;;;;;;6146511;28;88055;-66
2022/07/01 09:43:53;;;;;;;2.80;2.60;;;24.20;99.90;;;;;;6136786;28;89095;-66
2022/07/01 09:47:00;;;;;;;2.58;2.38;;;24.20;99.90;;;;;;6146191;28;90170;-66
2022/07/01 09:50:04;;;;;;;2.70;2.50;;;24.20;99.90;;;;;;6144036;28;89170;-66
2022/07/01 09:53:06;;;;;;;3.08;2.70;;;24.20;99.90;;;;;;6154616;28;88100;-66
2022/07/01 09:56:08;;;;;;;2.55;2.35;;;24.20;99.90;;;;;;6141553;28;89333;-66
2022/07/01 09:59:10;;;;;;;2.80;2.55;;;24.20;99.90;;;;;;6140186;28;89017;-66
2022/07/01 10:02:14;;;;;;;2.97;2.65;;;24.20;99.90;;;;;;6153392;28;89266;-66
2022/07/01 10:05:20;;;;;;;2.40;2.20;;;24.20;99.90;;;;;;6149005;28;88192;-66
2022/07/01 10:08:47;;;;;;;2.80;2.55;;;24.20;99.90;;;;;;6149406;28;88341;-66
2022/07/01 10:12:09;;;;;;;2.50;2.30;;;24.20;99.90;;;;;;6134242;28;89176;-66
2022/07/01 10:15:16;;;;;;;2.50;2.35;;;24.20;99.90;;;;;;6146560;28;89151;-65
2022/07/01 10:18:24;;;;;;;2.78;2.58;;;24.20;99.90;;;;;;6149998;28;89696;-66
2022/07/01 10:21:28;;;;;;;2.80;2.60;;;24.20;99.90;;;;;;6144165;28;89143;-66
2022/07/01 10:24:30;;;;;;;2.53;2.33;;;24.20;99.90;;;;;;6155079;28;88977;-66
2022/07/01 10:27:32;;;;;;;3.00;2.80;;;24.30;99.90;;;;;;6156764;28;89024;-66
2022/07/01 10:30:34;;;;;;;3.13;2.88;;;24.20;99.90;;;;;;6156098;28;89414;-66
2022/07/01 10:33:43;;;;;;;3.25;2.97;;;24.30;99.90;;;;;;6133679;28;87982;-66
2022/07/01 10:36:45;;;;;;;3.47;3.17;;;24.20;99.90;;;;;;6143361;28;89057;-66
2022/07/01 10:39:58;;;;;;;3.70;3.40;;;24.30;99.90;;;;;;6136661;28;88391;-66
2022/07/01 10:43:00;;;;;;;3.80;3.40;;;24.20;99.90;;;;;;6133355;28;89326;-66
2022/07/01 10:46:02;;;;;;;3.92;3.63;;;24.30;99.90;;;;;;6144364;28;89122;-66
2022/07/01 10:49:06;;;;;;;3.80;3.50;;;24.30;99.90;;;;;;6136008;28;90399;-66
2022/07/01 10:52:09;;;;;;;3.72;3.42;;;24.30;99.90;;;;;;6142101;28;88699;-66
2022/07/01 10:55:11;;;;;;;3.60;3.30;;;24.30;99.90;;;;;;6144216;28;89144;-66
2022/07/01 10:58:13;;;;;;;3.67;3.38;;;24.30;99.90;;;;;;6146177;28;89327;-66
2022/07/01 11:01:18;;;;;;;3.60;3.30;;;24.30;99.90;;;;;;6140220;28;89210;-66
2022/07/01 11:04:22;;;;;;;3.85;3.55;;;24.30;99.90;;;;;;6137730;28;89104;-66
2022/07/01 11:07:26;;;;;;;4.00;3.70;;;24.30;99.90;;;;;;6132325;28;88880;-66
2022/07/01 11:10:28;;;;;;;4.05;3.67;;;24.30;99.90;;;;;;6143909;28;88324;-66
2022/07/01 11:13:30;;;;;;;3.85;3.55;;;24.30;99.90;;;;;;6135797;28;89098;-66
2022/07/01 11:16:32;;;;;;;4.22;3.92;;;24.30;99.90;;;;;;6145274;28;89129;-66
2022/07/01 11:19:36;;;;;;;4.10;3.80;;;24.30;99.90;;;;;;6144813;28;90023;-66
2022/07/01 11:22:38;;;;;;;4.63;4.22;;;24.30;99.90;;;;;;6131950;28;89138;-65
2022/07/01 11:25:41;;;;;;;4.60;4.30;;;24.30;99.90;;;;;;6145912;28;88036;-66
2022/07/01 11:28:43;;;;;;;4.57;4.20;;;24.30;99.90;;;;;;6144363;28;87970;-66
2022/07/01 11:31:46;;;;;;;4.78;4.38;;;24.30;99.90;;;;;;6143148;28;89079;-66
2022/07/01 11:34:51;;;;;;;4.78;4.38;;;24.30;99.90;;;;;;6134378;28;89189;-66
2022/07/01 11:41:20;;;;;;;4.55;4.25;;;24.30;99.90;;;;;;6145714;28;86547;-66
2022/07/01 11:44:33;;;;;;;4.90;4.50;;;24.30;99.90;;;;;;6147888;28;89192;-66
2022/07/01 11:47:35;;;;;;;5.22;4.82;;;24.30;99.90;;;;;;6154803;28;89045;-66
2022/07/01 11:50:38;;;;;;;5.32;4.82;;;24.30;99.90;;;;;;6154678;28;90291;-66
2022/07/01 11:53:43;;;;;;;5.30;4.90;;;24.30;99.90;;;;;;6142942;28;87829;-66
2022/07/01 11:56:45;;;;;;;4.95;4.55;;;24.30;99.90;;;;;;6144289;28;89354;-66
2022/07/01 11:59:49;;;;;;;5.28;4.78;;;24.30;99.90;;;;;;6131586;28;88887;-66
2022/07/01 12:02:51;;;;;;;4.97;4.55;;;24.30;99.90;;;;;;6132062;28;88187;-66
2022/07/01 12:05:54;;;;;;;4.95;4.55;;;24.30;99.90;;;;;;6143849;28;89117;-66
2022/07/01 12:08:57;;;;;;;5.07;4.68;;;24.30;99.90;;;;;;6136914;28;89137;-66
2022/07/01 12:11:59;;;;;;;5.03;4.63;;;24.30;99.90;;;;;;6151671;28;87268;-66
2022/07/01 12:15:01;;;;;;;5.18;4.72;;;24.30;99.90;;;;;;6135953;28;89162;-66
2022/07/01 12:18:07;;;;;;;5.07;4.68;;;24.30;99.90;;;;;;6145086;28;89590;-66
2022/07/01 12:21:10;;;;;;;5.47;5.00;;;24.30;99.90;;;;;;6140704;28;90423;-66
2022/07/01 12:24:14;;;;;;;4.95;4.40;;;24.30;99.90;;;;;;6153814;28;89216;-66
2022/07/01 12:27:16;;;;;;;4.97;4.57;;;24.30;99.90;;;;;;6158658;28;89094;-66
2022/07/01 12:30:32;;;;;;;5.30;4.82;;;24.30;99.90;;;;;;6147424;28;89724;-66
2022/07/01 12:33:39;;;;;;;4.93;4.47;;;24.30;99.90;;;;;;6146752;28;88312;-66
2022/07/01 12:36:49;;;;;;;4.97;4.57;;;24.30;99.90;;;;;;6135493;28;89092;-66
2022/07/01 12:39:53;;;;;;;5.30;4.90;;;24.30;99.90;;;;;;6135604;28;89179;-66
2022/07/01 12:42:56;;;;;;;4.95;4.55;;;24.30;99.90;;;;;;6144180;28;88695;-66
2022/07/01 12:45:59;;;;;;;5.00;4.60;;;24.30;99.90;;;;;;6142239;28;89080;-65
2022/07/01 12:49:01;;;;;;;5.30;4.80;;;24.30;99.90;;;;;;6157512;28;89074;-66
2022/07/01 12:52:24;;;;;;;4.90;4.45;;;24.30;99.90;;;;;;6147806;28;90015;-66
2022/07/01 12:55:26;;;;;;;4.82;4.43;;;24.30;99.90;;;;;;6143962;28;88990;-66
2022/07/01 12:58:28;;;;;;;4.85;4.45;;;24.30;99.90;;;;;;6134594;28;89055;-66
2022/07/01 13:01:30;;;;;;;4.93;4.43;;;24.30;99.90;;;;;;6135629;28;89008;-66
2022/07/01 13:04:33;;;;;;;4.97;4.53;;;24.30;99.90;;;;;;6148745;28;89151;-66
2022/07/01 13:07:36;;;;;;;4.72;4.32;;;24.30;99.90;;;;;;6159024;28;89390;-66
2022/07/01 13:10:39;;;;;;;4.72;4.30;;;24.30;99.90;;;;;;6135333;28;89173;-66
2022/07/01 13:13:41;;;;;;;4.60;4.20;;;24.30;99.90;;;;;;6135531;28;88408;-66
2022/07/01 13:16:43;;;;;;;4.50;4.10;;;24.30;99.90;;;;;;6135456;28;89052;-66
2022/07/01 13:19:45;;;;;;;4.53;4.22;;;24.30;99.90;;;;;;6153422;28;89029;-66
2022/07/01 13:22:49;;;;;;;6.07;4.22;;;24.30;99.90;;;;;;6142890;28;90218;-66
2022/07/01 13:25:51;;;;;;;4.70;4.30;;;24.30;99.90;;;;;;6156670;28;89108;-66
2022/07/01 13:28:53;;;;;;;4.43;4.03;;;24.30;99.90;;;;;;6147161;28;89095;-66
2022/07/01 13:31:55;;;;;;;4.53;4.18;;;24.30;99.90;;;;;;6134122;28;90347;-66
2022/07/01 13:34:57;;;;;;;4.07;3.78;;;24.30;99.90;;;;;;6134543;28;89109;-66
2022/07/01 13:38:00;;;;;;;4.70;4.25;;;24.30;99.90;;;;;;6140256;28;89154;-66
2022/07/01 13:41:02;;;;;;;4.40;4.00;;;24.30;99.90;;;;;;6152772;28;89117;-66
2022/07/01 13:44:05;;;;;;;4.38;3.97;;;24.30;99.90;;;;;;6149535;28;88322;-66
2022/07/01 13:47:09;;;;;;;4.10;3.80;;;24.30;99.90;;;;;;6147248;28;89060;-66
2022/07/01 13:50:12;;;;;;;4.00;3.70;;;24.30;99.90;;;;;;6135094;28;89661;-66
2022/07/01 13:53:16;;;;;;;4.30;4.00;;;24.30;99.90;;;;;;6143122;28;89963;-66
2022/07/01 13:56:18;;;;;;;4.18;3.85;;;24.30;99.90;;;;;;6136181;28;89368;-66
2022/07/01 13:59:20;;;;;;;4.20;3.80;;;24.30;99.90;;;;;;6134741;28;89152;-66
2022/07/01 14:02:22;;;;;;;3.75;3.45;;;24.30;99.90;;;;;;6138444;28;89457;-66
2022/07/01 14:05:24;;;;;;;3.90;3.60;;;24.30;99.90;;;;;;6153082;28;89161;-67
2022/07/01 14:08:27;;;;;;;3.90;3.60;;;24.30;99.90;;;;;;6141441;28;89211;-66
2022/07/01 14:11:30;;;;;;;3.78;3.30;;;24.30;99.90;;;;;;6145191;28;87125;-66
2022/07/01 14:14:31;;;;;;;3.83;3.53;;;24.30;99.90;;;;;;6137858;28;88253;-65
2022/07/01 14:17:33;;;;;;;3.63;3.33;;;24.30;99.90;;;;;;6144383;28;89086;-67
2022/07/01 14:20:35;;;;;;;3.95;3.42;;;24.30;99.90;;;;;;6143469;28;89091;-67
2022/07/01 14:23:39;;;;;;;3.58;3.33;;;24.30;99.90;;;;;;6134326;28;89996;-66
2022/07/01 14:26:41;;;;;;;3.38;3.10;;;24.30;99.90;;;;;;6146299;28;89134;-67
2022/07/01 14:29:43;;;;;;;3.38;3.08;;;24.30;99.90;;;;;;6145278;28;89181;-66
2022/07/01 14:32:45;;;;;;;3.38;3.08;;;24.30;99.90;;;;;;6136365;28;88303;-67
2022/07/01 14:35:47;;;;;;;3.53;3.22;;;24.40;99.90;;;;;;6145639;28;89124;-66
2022/07/01 14:38:50;;;;;;;3.97;3.58;;;24.30;99.90;;;;;;6149807;28;89079;-67
2022/07/01 14:41:52;;;;;;;3.30;3.10;;;24.30;99.90;;;;;;6142697;28;88975;-67
2022/07/01 14:44:55;;;;;;;3.33;3.03;;;24.30;99.90;;;;;;6143770;28;88339;-67
2022/07/01 14:47:57;;;;;;;4.78;3.28;;;24.30;99.90;;;;;;6135414;28;88725;-67
2022/07/01 14:50:59;;;;;;;3.50;3.20;;;24.30;99.90;;;;;;6136595;28;88889;-67
2022/07/01 14:54:03;;;;;;;3.65;3.35;;;24.30;99.90;;;;;;6148607;28;90203;-67
2022/07/01 14:57:05;;;;;;;3.40;2.97;;;24.30;99.90;;;;;;6150778;28;89407;-67
2022/07/01 15:00:09;;;;;;;3.22;2.92;;;24.30;99.90;;;;;;6143336;28;89519;-67
2022/07/01 15:03:11;;;;;;;3.08;2.88;;;24.30;99.90;;;;;;6145990;28;89328;-66
2022/07/01 15:06:13;;;;;;;3.05;2.80;;;24.30;99.90;;;;;;6153626;28;89292;-66
2022/07/01 15:09:19;;;;;;;4.28;3.00;;;24.30;99.90;;;;;;6143928;28;89108;-67
2022/07/01 15:12:21;;;;;;;3.60;3.15;;;24.30;99.90;;;;;;6146234;28;89381;-66
2022/07/01 15:15:23;;;;;;;3.47;3.17;;;24.30;99.90;;;;;;6144552;28;88476;-66
2022/07/01 15:18:25;;;;;;;2.90;2.70;;;24.30;99.90;;;;;;6133487;28;89850;-66
2022/07/01 15:21:27;;;;;;;3.47;2.88;;;24.30;99.90;;;;;;6136153;28;89937;-66
2022/07/01 15:24:30;;;;;;;3.72;3.00;;;24.30;99.90;;;;;;6133390;28;90128;-66
2022/07/01 15:27:32;;;;;;;3.58;3.28;;;24.30;99.90;;;;;;6143608;28;88043;-66
2022/07/01 15:30:34;;;;;;;2.90;2.70;;;24.30;99.90;;;;;;6142984;28;89227;-66
2022/07/01 15:33:37;;;;;;;3.38;3.08;;;24.30;99.90;;;;;;6132786;28;89100;-66
2022/07/01 15:36:39;;;;;;;3.10;2.80;;;24.30;99.90;;;;;;6144010;28;89057;-66
2022/07/01 15:39:43;;;;;;;3.13;2.83;;;24.30;99.90;;;;;;6152088;28;89060;-66
2022/07/01 15:42:45;;;;;;;2.60;2.40;;;24.30;99.90;;;;;;6136435;28;88375;-66
2022/07/01 15:45:48;;;;;;;3.30;3.00;;;24.30;99.90;;;;;;6140572;28;88427;-66
2022/07/01 15:48:50;;;;;;;2.97;2.78;;;24.30;99.90;;;;;;6153014;28;89366;-66
2022/07/01 15:51:51;;;;;;;2.90;2.67;;;24.30;99.90;;;;;;6156668;28;89019;-66
2022/07/01 15:54:55;;;;;;;3.45;2.97;;;24.30;99.90;;;;;;6135464;28;90348;-66
2022/07/01 15:57:57;;;;;;;2.70;2.50;;;24.30;99.90;;;;;;6137497;28;89646;-67
2022/07/01 16:01:00;;;;;;;3.00;2.70;;;24.30;99.90;;;;;;6135149;28;88349;-66
2022/07/01 16:04:02;;;;;;;2.90;2.70;;;24.30;99.90;;;;;;6145842;28;88864;-66
2022/07/01 16:07:04;;;;;;;3.00;2.58;;;24.30;99.90;;;;;;6136495;28;89104;-66